Time;durP1;ratioP1;P1;durP2;ratioP2;P2;SDS_P1;SDS_P2;PMS_P1;PMS_P2;Temp;Humidity;BMP_temperature;BMP_pressure;BME280_temperature;BME280_humidity;BME280_pressure;Samples;Min_cycle;Max_cycle;Signal;HPM_P1;HPM_P2
2021/09/12 00:01:08;;;;;;;9.65;7.47;;;409.60;2201.60;;;;;;5030313;28;20021;-61
2021/09/12 00:03:34;;;;;;;10.63;6.65;;;409.60;2201.60;;;;;;5030098;28;20487;-61
2021/09/12 00:06:00;;;;;;;7.00;5.90;;;409.70;2176.00;;;;;;5030236;28;20537;-61
2021/09/12 00:08:26;;;;;;;8.57;5.88;;;409.70;2176.00;;;;;;5030118;28;20087;-61
2021/09/12 00:10:52;;;;;;;7.45;6.07;;;409.70;2150.40;;;;;;5029696;28;20029;-59
2021/09/12 00:13:18;;;;;;;8.77;6.75;;;409.70;2176.00;;;;;;5030184;28;20030;-61
2021/09/12 00:15:43;;;;;;;7.80;6.78;;;409.60;2201.60;;;;;;5030075;28;20018;-62
2021/09/12 00:18:09;;;;;;;6.63;5.70;;;384.90;2176.00;;;;;;5030037;28;20064;-61
2021/09/12 00:20:35;;;;;;;7.32;5.63;;;410.40;2201.60;;;;;;5029813;28;20025;-61
2021/09/12 00:23:01;;;;;;;11.27;6.28;;;384.90;2176.00;;;;;;5029856;28;20055;-62
2021/09/12 00:25:26;;;;;;;8.80;6.05;;;384.90;2176.00;;;;;;5030155;28;20029;-62
2021/09/12 00:27:52;;;;;;;6.90;5.38;;;409.60;2201.60;;;;;;5029912;28;20124;-62
2021/09/12 00:30:18;;;;;;;7.63;5.28;;;409.60;2150.40;;;;;;5030034;28;20121;-61
2021/09/12 00:32:44;;;;;;;8.90;6.10;;;384.90;2150.40;;;;;;5029963;28;20029;-61
2021/09/12 00:35:10;;;;;;;9.15;6.43;;;384.80;2176.00;;;;;;5030110;28;20049;-60
2021/09/12 00:37:37;;;;;;;10.63;7.05;;;384.80;2176.00;;;;;;5029872;28;20040;-62
2021/09/12 00:40:05;;;;;;;9.52;5.90;;;384.90;2176.00;;;;;;5029805;28;20038;-62
2021/09/12 00:42:31;;;;;;;10.40;6.20;;;384.90;2176.00;;;;;;5030099;28;20075;-62
2021/09/12 00:44:57;;;;;;;9.82;6.32;;;384.90;2176.00;;;;;;5030182;28;20383;-65
2021/09/12 00:47:23;;;;;;;7.63;6.47;;;384.90;2176.00;;;;;;5029981;28;20030;-62
2021/09/12 00:49:48;;;;;;;8.95;6.20;;;384.90;2176.00;;;;;;5029920;28;20021;-61
2021/09/12 00:52:15;;;;;;;9.27;5.50;;;384.90;2150.40;;;;;;5029708;28;20057;-61
2021/09/12 00:54:42;;;;;;;7.90;6.50;;;384.90;2150.40;;;;;;5029607;28;20025;-61
2021/09/12 00:57:10;;;;;;;11.63;5.80;;;384.90;2176.00;;;;;;5029533;28;20044;-61
2021/09/12 00:59:37;;;;;;;8.45;5.95;;;384.90;2176.00;;;;;;5029541;28;20424;-61
2021/09/12 01:02:08;;;;;;;9.40;5.70;;;384.90;2176.00;;;;;;5029339;28;20372;-62
2021/09/12 01:04:35;;;;;;;11.00;6.80;;;384.80;2176.00;;;;;;5029558;28;20025;-62
2021/09/12 01:07:03;;;;;;;12.90;5.80;;;384.90;2176.00;;;;;;5029549;28;20027;-62
2021/09/12 01:09:34;;;;;;;8.13;5.60;;;384.90;2150.40;;;;;;5030001;28;20083;-65
2021/09/12 01:12:01;;;;;;;11.15;7.10;;;384.90;2150.40;;;;;;5029903;28;20033;-61
2021/09/12 01:14:29;;;;;;;9.02;5.55;;;384.90;2176.00;;;;;;5029642;28;20387;-61
2021/09/12 01:16:55;;;;;;;8.88;5.60;;;384.90;2176.00;;;;;;5029192;28;20025;-62
2021/09/12 01:19:21;;;;;;;8.10;5.63;;;384.90;2150.40;;;;;;5029421;28;20040;-66
2021/09/12 01:21:47;;;;;;;8.55;5.60;;;384.90;2176.00;;;;;;5030741;28;20033;-61
2021/09/12 01:24:14;;;;;;;8.80;5.93;;;384.80;2176.00;;;;;;5033002;28;20030;-62
2021/09/12 01:26:40;;;;;;;8.77;5.38;;;384.90;2176.00;;;;;;5033546;28;20100;-66
2021/09/12 01:29:05;;;;;;;10.70;6.65;;;384.80;2176.00;;;;;;5034698;28;20112;-62
2021/09/12 01:31:33;;;;;;;8.20;6.35;;;384.80;2176.00;;;;;;5032963;28;20101;-61
2021/09/12 01:34:00;;;;;;;7.22;5.68;;;384.70;2201.60;;;;;;5034077;28;20033;-63
2021/09/12 01:36:26;;;;;;;6.70;5.78;;;384.70;2201.60;;;;;;5033447;28;20064;-62
2021/09/12 01:38:52;;;;;;;11.38;6.07;;;384.70;2201.60;;;;;;5032618;28;20056;-61
2021/09/12 01:41:19;;;;;;;12.77;5.68;;;384.60;2201.60;;;;;;5032790;28;20068;-61
2021/09/12 01:43:56;;;;;;;8.02;6.30;;;384.60;2227.20;;;;;;5032420;28;20108;-61
2021/09/12 01:46:23;;;;;;;11.70;6.35;;;384.60;2227.20;;;;;;5032532;28;20120;-61
2021/09/12 01:48:51;;;;;;;7.75;5.88;;;384.60;2252.80;;;;;;5032854;28;20068;-61
2021/09/12 01:51:18;;;;;;;7.95;5.88;;;384.50;2252.80;;;;;;5032452;28;20035;-61
2021/09/12 01:53:44;;;;;;;8.73;6.55;;;384.50;2227.20;;;;;;5032533;28;20024;-61
2021/09/12 01:56:10;;;;;;;8.10;5.70;;;384.50;2252.80;;;;;;5032107;28;20087;-62
2021/09/12 01:58:36;;;;;;;7.00;6.28;;;384.50;2252.80;;;;;;5032465;28;20585;-62
2021/09/12 02:01:03;;;;;;;7.95;6.03;;;384.50;2227.20;;;;;;5032172;28;20029;-61
2021/09/12 02:03:29;;;;;;;6.90;6.07;;;384.40;2252.80;;;;;;5032438;28;20057;-63
2021/09/12 02:05:54;;;;;;;8.73;6.30;;;384.30;2252.80;;;;;;5031988;28;20045;-62
2021/09/12 02:08:20;;;;;;;7.85;6.22;;;384.40;2278.40;;;;;;5032189;28;20030;-61
2021/09/12 02:10:46;;;;;;;11.68;6.53;;;384.30;2278.40;;;;;;5032089;28;20087;-61
2021/09/12 02:13:12;;;;;;;8.73;6.07;;;384.30;2252.80;;;;;;5032065;28;20033;-62
2021/09/12 02:15:38;;;;;;;8.38;6.90;;;384.40;2278.40;;;;;;5032225;28;20026;-61
2021/09/12 02:18:04;;;;;;;7.63;5.78;;;384.30;2278.40;;;;;;5031908;28;20124;-62
2021/09/12 02:20:30;;;;;;;10.90;6.70;;;384.10;2304.00;;;;;;5032038;28;20052;-62
2021/09/12 02:22:56;;;;;;;11.32;6.15;;;384.10;2329.60;;;;;;5032154;28;20403;-61
2021/09/12 02:25:22;;;;;;;7.63;5.95;;;384.10;2304.00;;;;;;5031907;28;20063;-61
2021/09/12 02:27:48;;;;;;;10.00;6.22;;;384.10;2304.00;;;;;;5031995;28;20498;-61
2021/09/12 02:30:14;;;;;;;8.60;7.05;;;384.10;2278.40;;;;;;5031659;28;20479;-60
2021/09/12 02:32:40;;;;;;;10.32;6.13;;;384.20;2278.40;;;;;;5031366;28;20029;-61
2021/09/12 02:35:07;;;;;;;12.55;6.40;;;384.20;2278.40;;;;;;5031689;28;20014;-60
2021/09/12 02:37:33;;;;;;;10.25;6.22;;;384.30;2278.40;;;;;;5031228;28;20168;-61
2021/09/12 02:39:58;;;;;;;9.68;6.88;;;384.00;2329.60;;;;;;5032205;28;20119;-60
2021/09/12 02:42:24;;;;;;;10.77;6.53;;;359.30;2329.60;;;;;;5031356;28;20022;-61
2021/09/12 02:44:50;;;;;;;8.65;5.88;;;384.00;2329.60;;;;;;5031331;28;20029;-62
2021/09/12 02:47:16;;;;;;;7.47;5.13;;;384.10;2304.00;;;;;;5032531;28;20025;-64
2021/09/12 02:49:41;;;;;;;6.70;5.22;;;384.10;2304.00;;;;;;5042373;28;20545;-64
2021/09/12 02:52:07;;;;;;;8.57;5.32;;;384.10;2304.00;;;;;;5037331;28;20068;-60
2021/09/12 02:54:33;;;;;;;8.40;5.47;;;384.10;2278.40;;;;;;5034035;28;20380;-61
2021/09/12 02:56:59;;;;;;;10.27;6.07;;;384.20;2252.80;;;;;;5034029;28;20041;-62
2021/09/12 02:59:24;;;;;;;5.82;4.75;;;384.10;2278.40;;;;;;5034026;28;20037;-62
2021/09/12 03:01:50;;;;;;;8.20;5.60;;;384.00;2304.00;;;;;;5035437;28;20025;-65
2021/09/12 03:04:16;;;;;;;7.80;5.47;;;384.00;2278.40;;;;;;5033311;28;20029;-61
2021/09/12 03:06:42;;;;;;;8.27;5.60;;;384.00;2304.00;;;;;;5032621;28;20027;-61
2021/09/12 03:09:07;;;;;;;8.40;4.93;;;384.00;2304.00;;;;;;5032382;28;20499;-64
2021/09/12 03:11:33;;;;;;;9.88;6.18;;;359.30;2329.60;;;;;;5033172;28;20071;-66
2021/09/12 03:13:59;;;;;;;9.43;5.55;;;359.20;2329.60;;;;;;5034020;28;20022;-63
2021/09/12 03:16:25;;;;;;;9.07;5.70;;;358.80;2329.60;;;;;;5033982;28;20026;-64
2021/09/12 03:18:51;;;;;;;11.70;5.93;;;359.20;2329.60;;;;;;5033496;28;20037;-62
2021/09/12 03:21:18;;;;;;;7.25;4.78;;;359.20;2329.60;;;;;;5032881;28;20029;-68
2021/09/12 03:23:44;;;;;;;6.95;5.20;;;359.20;2329.60;;;;;;5033067;28;20025;-63
2021/09/12 03:26:10;;;;;;;8.45;5.18;;;359.20;2329.60;;;;;;5032336;28;20460;-61
2021/09/12 03:28:36;;;;;;;8.98;5.65;;;359.10;2329.60;;;;;;5032481;28;20100;-70
2021/09/12 03:31:02;;;;;;;9.13;5.65;;;359.00;2329.60;;;;;;5031323;28;20067;-62
2021/09/12 03:33:28;;;;;;;8.90;6.00;;;359.00;2329.60;;;;;;5031000;28;20048;-60
2021/09/12 03:35:54;;;;;;;7.05;5.18;;;359.00;2329.60;;;;;;5030532;28;20459;-61
2021/09/12 03:38:20;;;;;;;7.55;5.28;;;359.00;2329.60;;;;;;5030423;28;20041;-61
2021/09/12 03:40:45;;;;;;;7.78;5.60;;;359.00;2329.60;;;;;;5030949;28;20021;-61
2021/09/12 03:43:12;;;;;;;10.18;5.88;;;359.00;2329.60;;;;;;5030276;28;20033;-62
2021/09/12 03:45:38;;;;;;;11.93;5.93;;;359.10;2329.60;;;;;;5030620;28;20021;-61
2021/09/12 03:48:04;;;;;;;8.77;5.10;;;359.10;2329.60;;;;;;5031665;28;20537;-62
2021/09/12 03:50:29;;;;;;;8.18;5.65;;;359.10;2329.60;;;;;;5031821;28;20053;-62
2021/09/12 03:52:55;;;;;;;11.68;5.53;;;359.10;2329.60;;;;;;5031839;28;20029;-61
2021/09/12 03:55:21;;;;;;;12.25;4.97;;;359.10;2329.60;;;;;;5031775;28;20032;-66
2021/09/12 03:57:47;;;;;;;8.82;5.63;;;359.00;2329.60;;;;;;5031253;28;20041;-64
2021/09/12 04:00:13;;;;;;;12.73;6.00;;;359.00;2329.60;;;;;;5031220;28;20021;-62
2021/09/12 04:02:40;;;;;;;9.38;5.88;;;359.00;2329.60;;;;;;5031553;28;20109;-61
2021/09/12 04:05:06;;;;;;;10.35;6.75;;;359.00;2329.60;;;;;;5030977;28;20053;-61
2021/09/12 04:07:31;;;;;;;11.60;6.13;;;358.90;2329.60;;;;;;5031272;28;20064;-61
2021/09/12 04:09:57;;;;;;;9.52;6.25;;;358.90;2329.60;;;;;;5031612;28;20022;-66
2021/09/12 04:12:23;;;;;;;10.68;5.95;;;359.00;2329.60;;;;;;5031611;28;20410;-62
2021/09/12 04:14:48;;;;;;;6.40;5.22;;;358.90;2329.60;;;;;;5031668;28;20021;-65
2021/09/12 04:17:15;;;;;;;7.93;5.57;;;358.90;2329.60;;;;;;5031552;28;20379;-64
2021/09/12 04:19:40;;;;;;;10.13;5.72;;;359.00;2329.60;;;;;;5031960;28;20116;-63
2021/09/12 04:22:06;;;;;;;9.23;6.00;;;359.00;2329.60;;;;;;5032148;28;20096;-66
2021/09/12 04:24:32;;;;;;;14.75;6.75;;;359.00;2329.60;;;;;;5031882;28;20088;-61
2021/09/12 04:26:58;;;;;;;13.10;6.50;;;359.00;2329.60;;;;;;5032582;28;20101;-67
2021/09/12 04:29:23;;;;;;;13.15;6.88;;;359.00;2329.60;;;;;;5031644;28;20061;-61
2021/09/12 04:31:49;;;;;;;10.32;6.53;;;359.00;2329.60;;;;;;5031508;28;20379;-64
2021/09/12 04:34:15;;;;;;;11.10;7.07;;;359.00;2329.60;;;;;;5031425;28;20171;-61
2021/09/12 04:36:41;;;;;;;12.50;6.80;;;359.00;2329.60;;;;;;5031164;28;20025;-66
2021/09/12 04:39:07;;;;;;;13.27;7.05;;;359.00;2329.60;;;;;;5030729;28;20136;-65
2021/09/12 04:41:32;;;;;;;10.00;6.40;;;359.10;2329.60;;;;;;5031047;28;20545;-64
2021/09/12 04:43:58;;;;;;;9.70;6.50;;;359.10;2329.60;;;;;;5031424;28;20549;-64
2021/09/12 04:46:24;;;;;;;12.23;6.13;;;359.10;2329.60;;;;;;5031481;28;20025;-62
2021/09/12 04:48:50;;;;;;;8.45;6.93;;;359.30;2329.60;;;;;;5031880;28;20021;-63
2021/09/12 04:51:15;;;;;;;11.40;7.15;;;359.30;2329.60;;;;;;5031703;28;20061;-62
2021/09/12 04:53:42;;;;;;;8.65;6.85;;;359.30;2329.60;;;;;;5031487;28;20053;-67
2021/09/12 04:56:08;;;;;;;10.55;6.68;;;359.30;2329.60;;;;;;5031927;28;20048;-59
2021/09/12 04:58:33;;;;;;;8.90;6.88;;;384.00;2329.60;;;;;;5035142;28;20551;-61
2021/09/12 05:01:00;;;;;;;8.82;6.55;;;384.10;2329.60;;;;;;5035008;28;20097;-62
2021/09/12 05:03:26;;;;;;;8.70;6.75;;;384.20;2329.60;;;;;;5034898;28;20021;-62
2021/09/12 05:05:52;;;;;;;10.30;6.68;;;384.40;2329.60;;;;;;5034528;28;20369;-64
2021/09/12 05:08:17;;;;;;;10.38;6.57;;;384.50;2329.60;;;;;;5034281;28;20037;-66
2021/09/12 05:10:43;;;;;;;14.95;6.30;;;384.40;2329.60;;;;;;5034097;28;20104;-69
2021/09/12 05:13:09;;;;;;;9.57;5.80;;;384.50;2329.60;;;;;;5034567;28;20113;-61
2021/09/12 05:15:35;;;;;;;7.05;5.68;;;384.60;2329.60;;;;;;5033949;28;20057;-61
2021/09/12 05:18:01;;;;;;;9.20;5.82;;;384.60;2329.60;;;;;;5034364;28;20428;-63
2021/09/12 05:20:26;;;;;;;11.10;6.10;;;384.70;2329.60;;;;;;5035553;28;20029;-64
2021/09/12 05:22:52;;;;;;;7.32;5.40;;;384.80;2329.60;;;;;;5035119;28;20029;-65
2021/09/12 05:25:18;;;;;;;7.47;5.95;;;384.70;2329.60;;;;;;5035296;28;20065;-62
2021/09/12 05:27:43;;;;;;;12.63;6.10;;;384.60;2329.60;;;;;;5033678;28;20030;-64
2021/09/12 05:30:10;;;;;;;7.65;5.03;;;384.70;2329.60;;;;;;5034120;28;20030;-62
2021/09/12 05:32:37;;;;;;;7.45;5.18;;;384.70;2329.60;;;;;;5033778;28;20026;-62
2021/09/12 05:35:03;;;;;;;9.95;5.97;;;409.60;2355.20;;;;;;5033766;28;20030;-63
2021/09/12 05:37:29;;;;;;;9.65;5.82;;;409.70;2355.20;;;;;;5034085;28;20041;-60
2021/09/12 05:39:55;;;;;;;12.43;5.35;;;409.80;2355.20;;;;;;5034579;28;20037;-62
2021/09/12 05:42:20;;;;;;;12.55;5.95;;;409.70;2355.20;;;;;;5034761;28;20045;-63
2021/09/12 05:44:46;;;;;;;19.20;6.72;;;409.70;2355.20;;;;;;5033964;28;20032;-64
2021/09/12 05:47:12;;;;;;;8.40;5.45;;;409.80;2355.20;;;;;;5034015;28;20025;-65
2021/09/12 05:49:37;;;;;;;8.68;5.13;;;409.90;2355.20;;;;;;5034038;28;20104;-62
2021/09/12 05:52:04;;;;;;;9.00;4.80;;;410.20;2355.20;;;;;;5035264;28;20041;-61
2021/09/12 05:54:29;;;;;;;7.22;4.65;;;410.40;2355.20;;;;;;5036766;28;20029;-65
2021/09/12 05:56:55;;;;;;;7.10;5.13;;;435.30;2355.20;;;;;;5037027;28;20442;-63
2021/09/12 05:59:21;;;;;;;7.25;5.30;;;436.00;2278.40;;;;;;5041834;28;20037;-62
2021/09/12 06:01:46;;;;;;;6.70;5.53;;;487.30;2099.20;;;;;;5041032;28;20459;-61
2021/09/12 06:04:12;;;;;;;8.73;6.18;;;563.90;1868.80;;;;;;5042039;28;20056;-61
2021/09/12 06:06:38;;;;;;;11.90;6.10;;;640.70;1612.80;;;;;;5043868;28;20456;-60
2021/09/12 06:09:04;;;;;;;11.18;7.85;;;717.00;1459.20;;;;;;5044616;28;20116;-60
2021/09/12 06:11:30;;;;;;;9.38;6.85;;;768.00;1331.20;;;;;;5047845;28;20028;-61
2021/09/12 06:13:55;;;;;;;8.15;7.40;;;768.50;1280.00;;;;;;5043927;28;20029;-61
2021/09/12 06:16:21;;;;;;;10.05;7.15;;;793.80;1254.40;;;;;;5046371;28;20028;-61
2021/09/12 06:18:47;;;;;;;9.18;7.95;;;819.80;1203.20;;;;;;5046680;28;21190;-61
2021/09/12 06:21:12;;;;;;;8.70;7.95;;;845.50;1177.60;;;;;;5045720;28;20111;-62
2021/09/12 06:23:38;;;;;;;10.35;9.35;;;845.40;1152.00;;;;;;5046991;28;20021;-61
2021/09/12 06:26:04;;;;;;;10.77;9.88;;;870.60;1100.80;;;;;;5043537;28;20487;-61
2021/09/12 06:28:30;;;;;;;10.43;9.05;;;896.70;1024.00;;;;;;5035981;28;20029;-62
2021/09/12 06:30:56;;;;;;;10.18;9.25;;;921.70;1024.00;;;;;;5045711;28;20048;-62
2021/09/12 06:33:23;;;;;;;11.07;10.13;;;921.80;1024.00;;;;;;5061097;28;20490;-63
2021/09/12 06:35:49;;;;;;;12.35;11.35;;;922.10;998.40;;;;;;5058593;28;20032;-62
2021/09/12 06:38:15;;;;;;;14.50;13.30;;;947.40;972.80;;;;;;5051422;28;20040;-63
2021/09/12 06:40:40;;;;;;;14.60;13.40;;;922.40;998.40;;;;;;5051840;28;20159;-68
2021/09/12 06:43:06;;;;;;;15.35;14.30;;;922.50;972.80;;;;;;5055304;28;20083;-63
2021/09/12 06:45:32;;;;;;;16.80;15.43;;;947.90;972.80;;;;;;5055763;28;20025;-62
2021/09/12 06:47:58;;;;;;;20.52;16.63;;;948.10;947.20;;;;;;5057218;28;20021;-63
2021/09/12 06:50:25;;;;;;;15.25;14.20;;;972.80;947.20;;;;;;5056838;28;20029;-63
2021/09/12 06:52:51;;;;;;;14.73;13.80;;;947.20;947.20;;;;;;5057948;28;20026;-63
2021/09/12 06:55:17;;;;;;;15.68;14.30;;;973.60;921.60;;;;;;5060036;28;20049;-63
2021/09/12 06:57:43;;;;;;;16.45;15.32;;;998.60;947.20;;;;;;5058958;28;20085;-63
2021/09/12 07:00:09;;;;;;;14.73;13.55;;;999.10;947.20;;;;;;5058064;28;20167;-68
2021/09/12 07:02:36;;;;;;;16.65;15.45;;;999.30;921.60;;;;;;5056860;28;20051;-65
2021/09/12 07:05:04;;;;;;;16.80;15.50;;;1024.20;921.60;;;;;;5052270;28;20028;-63
2021/09/12 07:07:29;;;;;;;15.65;14.55;;;1024.90;896.00;;;;;;5051206;28;20029;-62
2021/09/12 07:09:55;;;;;;;16.55;15.40;;;1024.50;896.00;;;;;;5051168;28;20017;-62
2021/09/12 07:12:21;;;;;;;15.45;14.35;;;1050.00;870.40;;;;;;5047824;28;20040;-63
2021/09/12 07:14:47;;;;;;;16.83;15.55;;;1050.10;896.00;;;;;;5040999;28;20029;-62
2021/09/12 07:17:13;;;;;;;15.20;13.77;;;1050.20;896.00;;;;;;5041503;28;20090;-62
2021/09/12 07:19:39;;;;;;;15.75;14.50;;;1050.40;870.40;;;;;;5038285;28;20033;-62
2021/09/12 07:22:05;;;;;;;15.95;14.77;;;1075.40;870.40;;;;;;5048977;28;20364;-62
2021/09/12 07:24:32;;;;;;;15.40;14.30;;;1075.70;844.80;;;;;;5050830;28;20044;-63
2021/09/12 07:26:58;;;;;;;15.23;14.23;;;1076.10;819.20;;;;;;5051558;28;20029;-63
2021/09/12 07:29:24;;;;;;;15.70;14.50;;;1075.50;844.80;;;;;;5050891;28;20056;-63
2021/09/12 07:31:51;;;;;;;15.43;14.13;;;1075.60;844.80;;;;;;5050709;28;20033;-63
2021/09/12 07:34:17;;;;;;;15.40;14.30;;;1101.20;819.20;;;;;;5050911;28;20029;-63
2021/09/12 07:36:42;;;;;;;15.20;14.10;;;1101.40;819.20;;;;;;5050697;28;20039;-64
2021/09/12 07:39:08;;;;;;;13.68;12.82;;;1101.60;793.60;;;;;;5050799;28;20079;-63
2021/09/12 07:41:34;;;;;;;14.75;13.48;;;1126.70;819.20;;;;;;5050793;28;20382;-63
2021/09/12 07:44:00;;;;;;;15.77;14.38;;;1101.40;793.60;;;;;;5050781;28;20756;-61
2021/09/12 07:46:25;;;;;;;14.10;13.00;;;1100.90;819.20;;;;;;5050592;28;20055;-62
2021/09/12 07:48:51;;;;;;;13.43;12.32;;;1126.60;793.60;;;;;;5050609;28;20024;-63
2021/09/12 07:51:17;;;;;;;13.63;12.73;;;1101.70;793.60;;;;;;5041857;28;20025;-63
2021/09/12 07:53:43;;;;;;;13.98;12.98;;;1127.00;793.60;;;;;;5040656;28;20049;-62
2021/09/12 07:56:08;;;;;;;14.55;13.38;;;1152.00;768.00;;;;;;5032974;28;20041;-62
2021/09/12 07:58:34;;;;;;;13.57;12.68;;;1127.00;793.60;;;;;;5048001;28;20041;-63
2021/09/12 08:01:00;;;;;;;14.75;13.55;;;1152.00;768.00;;;;;;5049030;28;20474;-62
2021/09/12 08:03:25;;;;;;;14.35;13.32;;;1152.20;768.00;;;;;;5038299;28;20030;-62
2021/09/12 08:05:51;;;;;;;14.48;13.18;;;1152.60;742.40;;;;;;5028746;28;20563;-63
2021/09/12 08:08:19;;;;;;;14.10;12.77;;;1127.10;768.00;;;;;;5028669;28;20034;-63
2021/09/12 08:10:45;;;;;;;14.27;13.05;;;1152.00;768.00;;;;;;5028596;28;20040;-63
2021/09/12 08:13:11;;;;;;;12.90;11.70;;;1152.50;742.40;;;;;;5028418;28;20021;-64
2021/09/12 08:15:38;;;;;;;13.23;12.13;;;1127.10;793.60;;;;;;5028069;28;20064;-62
2021/09/12 08:18:04;;;;;;;14.40;13.02;;;1127.30;768.00;;;;;;5028284;28;20445;-63
2021/09/12 08:20:30;;;;;;;13.43;12.13;;;1126.60;768.00;;;;;;5028665;28;20128;-64
2021/09/12 08:22:56;;;;;;;13.57;12.43;;;1127.10;768.00;;;;;;5028746;28;20036;-63
2021/09/12 08:25:22;;;;;;;14.32;13.30;;;1152.20;768.00;;;;;;5028308;28;20128;-63
2021/09/12 08:27:48;;;;;;;13.30;12.10;;;1152.00;742.40;;;;;;5027886;28;20112;-63
2021/09/12 08:30:14;;;;;;;14.68;13.30;;;1127.30;742.40;;;;;;5028687;28;20017;-64
2021/09/12 08:32:40;;;;;;;13.98;12.85;;;1152.50;742.40;;;;;;5031527;28;20618;-61
2021/09/12 08:35:06;;;;;;;13.48;12.35;;;1152.70;716.80;;;;;;5032668;28;20029;-62
2021/09/12 08:37:32;;;;;;;13.77;11.77;;;1152.00;742.40;;;;;;5032197;28;20040;-62
2021/09/12 08:39:58;;;;;;;13.43;12.32;;;1101.50;768.00;;;;;;5032273;28;20037;-61
2021/09/12 08:42:26;;;;;;;13.43;12.13;;;1101.30;768.00;;;;;;5031836;28;20065;-62
2021/09/12 08:44:52;;;;;;;13.60;12.30;;;1101.20;793.60;;;;;;5032171;28;20029;-61
2021/09/12 08:47:19;;;;;;;12.75;11.75;;;1024.60;844.80;;;;;;5032442;28;20036;-62
2021/09/12 08:49:45;;;;;;;12.93;11.63;;;1024.60;844.80;;;;;;5033258;28;20025;-63
2021/09/12 08:52:13;;;;;;;12.50;11.38;;;973.20;921.60;;;;;;5034150;28;20096;-62
2021/09/12 08:54:39;;;;;;;10.18;9.07;;;922.00;947.20;;;;;;5033939;28;20072;-62
2021/09/12 08:57:05;;;;;;;11.63;9.38;;;921.60;972.80;;;;;;5033321;28;20077;-61
2021/09/12 08:59:33;;;;;;;11.25;9.65;;;871.30;972.80;;;;;;5033321;28;20068;-62
2021/09/12 09:02:02;;;;;;;11.45;9.48;;;870.70;998.40;;;;;;5033703;28;20025;-62
2021/09/12 09:04:29;;;;;;;12.68;7.85;;;845.70;1049.60;;;;;;5033828;28;20436;-61
2021/09/12 09:07:03;;;;;;;11.13;9.00;;;844.90;1049.60;;;;;;5032093;28;20033;-62
2021/09/12 09:09:50;;;;;;;10.93;7.32;;;819.50;1075.20;;;;;;5033634;28;20121;-61
2021/09/12 09:12:26;;;;;;;9.70;8.70;;;794.00;1100.80;;;;;;5033511;28;20029;-62
2021/09/12 09:15:03;;;;;;;12.18;8.15;;;819.20;1126.40;;;;;;5033351;28;20033;-62
2021/09/12 09:17:29;;;;;;;8.57;7.30;;;794.00;1126.40;;;;;;5033346;28;20071;-62
2021/09/12 09:19:55;;;;;;;8.73;7.40;;;793.70;1100.80;;;;;;5031991;28;20034;-62
2021/09/12 09:22:42;;;;;;;9.30;6.50;;;793.60;1126.40;;;;;;5033431;28;20104;-62
2021/09/12 09:25:09;;;;;;;7.20;6.50;;;793.80;1100.80;;;;;;5033347;28;20025;-61
2021/09/12 09:27:57;;;;;;;11.18;7.15;;;768.80;1075.20;;;;;;5032863;28;20033;-61
2021/09/12 09:30:25;;;;;;;9.13;6.45;;;768.60;1049.60;;;;;;5032407;28;20042;-61
2021/09/12 09:32:51;;;;;;;10.40;6.40;;;768.20;1075.20;;;;;;5033345;28;20213;-61
2021/09/12 09:35:26;;;;;;;9.15;6.90;;;743.30;1049.60;;;;;;5033162;28;20030;-61
2021/09/12 09:37:53;;;;;;;7.43;6.03;;;768.50;1075.20;;;;;;5032695;28;20116;-62
2021/09/12 09:40:20;;;;;;;7.40;6.47;;;768.20;1049.60;;;;;;5033134;28;20448;-62
2021/09/12 09:42:46;;;;;;;8.75;6.50;;;768.60;1049.60;;;;;;5032009;28;20033;-61
2021/09/12 09:45:13;;;;;;;9.52;5.90;;;743.30;1075.20;;;;;;5032717;28;20108;-61
2021/09/12 09:47:41;;;;;;;9.98;5.53;;;768.00;1049.60;;;;;;5032971;28;20071;-60
2021/09/12 09:50:16;;;;;;;8.57;5.97;;;743.30;1024.00;;;;;;5032847;28;20025;-61
2021/09/12 09:52:51;;;;;;;7.57;5.50;;;743.30;998.40;;;;;;5032918;28;20025;-61
2021/09/12 09:55:19;;;;;;;10.98;5.75;;;768.20;1024.00;;;;;;5032489;28;20040;-62
2021/09/12 09:57:51;;;;;;;10.23;6.97;;;768.10;1024.00;;;;;;5030770;28;20037;-63
2021/09/12 10:00:18;;;;;;;8.25;6.00;;;768.30;998.40;;;;;;5031219;28;20041;-63
2021/09/12 10:02:44;;;;;;;12.70;7.82;;;768.10;998.40;;;;;;5030691;28;20040;-66
2021/09/12 10:05:12;;;;;;;7.18;5.82;;;768.10;998.40;;;;;;5031067;28;20037;-62
2021/09/12 10:07:40;;;;;;;9.82;6.30;;;743.10;972.80;;;;;;5030536;28;20026;-62
2021/09/12 10:10:08;;;;;;;8.32;5.63;;;743.10;1024.00;;;;;;5031198;28;20034;-61
2021/09/12 10:12:38;;;;;;;9.95;6.47;;;743.00;1024.00;;;;;;5030794;28;20041;-61
2021/09/12 10:15:09;;;;;;;10.95;6.45;;;743.00;1024.00;;;;;;5030670;28;20079;-60
2021/09/12 10:17:36;;;;;;;14.48;7.25;;;768.00;1024.00;;;;;;5030560;28;20040;-62
2021/09/12 10:20:16;;;;;;;8.38;6.28;;;768.10;998.40;;;;;;5030115;28;20029;-61
2021/09/12 10:22:54;;;;;;;6.65;5.15;;;742.90;1024.00;;;;;;5030666;28;20116;-61
2021/09/12 10:25:22;;;;;;;9.95;5.72;;;743.20;972.80;;;;;;5030245;28;20025;-60
2021/09/12 10:27:49;;;;;;;8.15;5.63;;;742.90;998.40;;;;;;5038207;28;20024;-62
2021/09/12 10:30:37;;;;;;;7.82;6.65;;;742.80;1024.00;;;;;;5039665;28;20021;-62
2021/09/12 10:33:06;;;;;;;9.25;8.00;;;742.80;1049.60;;;;;;5040166;28;20444;-62
2021/09/12 10:35:36;;;;;;;8.30;6.82;;;742.80;1049.60;;;;;;5039042;28;20097;-62
2021/09/12 10:38:04;;;;;;;12.60;6.90;;;742.60;1049.60;;;;;;5039263;28;20025;-62
2021/09/12 10:40:48;;;;;;;11.18;6.00;;;742.60;1049.60;;;;;;5040916;28;20104;-62
2021/09/12 10:43:25;;;;;;;8.57;5.50;;;742.40;1075.20;;;;;;5032500;28;20025;-61
2021/09/12 10:46:09;;;;;;;8.18;6.05;;;742.50;1049.60;;;;;;5029028;28;20025;-62
2021/09/12 10:49:04;;;;;;;7.82;5.82;;;742.40;1075.20;;;;;;5046718;28;20483;-62
2021/09/12 10:51:31;;;;;;;8.60;5.43;;;742.40;1024.00;;;;;;5039171;28;20048;-60
2021/09/12 10:54:00;;;;;;;8.32;5.82;;;742.50;1024.00;;;;;;5049419;28;20032;-61
2021/09/12 10:56:45;;;;;;;8.57;5.75;;;742.50;1049.60;;;;;;5049528;28;20035;-61
2021/09/12 10:59:14;;;;;;;7.90;5.32;;;742.40;1049.60;;;;;;5029977;28;20048;-62
2021/09/12 11:01:45;;;;;;;8.32;5.45;;;742.60;1075.20;;;;;;5047244;28;20025;-62
2021/09/12 11:04:13;;;;;;;6.25;5.60;;;742.80;1049.60;;;;;;5046721;28;20052;-62
2021/09/12 11:06:42;;;;;;;7.30;6.32;;;742.90;1049.60;;;;;;5047171;28;20040;-61
2021/09/12 11:09:23;;;;;;;8.30;6.57;;;742.80;1049.60;;;;;;5046886;28;20029;-60
2021/09/12 11:12:03;;;;;;;8.70;6.80;;;742.60;1049.60;;;;;;5044752;28;20029;-61
2021/09/12 11:14:29;;;;;;;9.02;6.20;;;742.50;1049.60;;;;;;5047270;28;20124;-60
2021/09/12 11:17:12;;;;;;;9.00;5.93;;;742.60;1075.20;;;;;;5046729;28;20116;-61
2021/09/12 11:19:49;;;;;;;;;;;742.60;1075.20;;;;;;5047157;28;20056;-63
2021/09/12 11:22:15;;;;;;;7.85;5.47;;;742.50;1049.60;;;;;;5046794;28;19995;-62
2021/09/12 11:24:41;;;;;;;6.93;5.80;;;742.50;1024.00;;;;;;5046525;28;20120;-61
2021/09/12 11:27:07;;;;;;;8.98;6.25;;;742.50;1049.60;;;;;;5046611;28;20037;-61
2021/09/12 11:29:35;;;;;;;6.90;6.18;;;742.40;1049.60;;;;;;5047057;28;20052;-62
2021/09/12 11:32:00;;;;;;;7.20;5.47;;;742.40;1049.60;;;;;;5049128;28;20059;-62
2021/09/12 11:34:26;;;;;;;10.48;5.78;;;742.60;1049.60;;;;;;5049398;28;20471;-61
2021/09/12 11:37:01;;;;;;;8.88;5.78;;;742.60;1024.00;;;;;;5049112;28;20532;-62
2021/09/12 11:39:29;;;;;;;6.78;5.72;;;742.70;1049.60;;;;;;5048452;28;20061;-61
2021/09/12 11:41:57;;;;;;;8.10;5.95;;;742.70;1049.60;;;;;;5048929;28;20364;-62
2021/09/12 11:44:38;;;;;;;5.85;5.28;;;742.60;1024.00;;;;;;5049006;28;20057;-62
2021/09/12 11:47:08;;;;;;;8.05;6.05;;;742.50;1049.60;;;;;;5048990;28;20433;-61
2021/09/12 11:49:34;;;;;;;8.48;5.75;;;742.40;1049.60;;;;;;5048628;28;20041;-61
2021/09/12 11:52:00;;;;;;;7.78;5.75;;;717.50;1024.00;;;;;;5048524;28;20028;-61
2021/09/12 11:54:27;;;;;;;7.10;5.55;;;742.50;1075.20;;;;;;5048699;28;20029;-62
2021/09/12 11:57:01;;;;;;;13.50;5.63;;;742.50;1049.60;;;;;;5048567;28;20071;-61
2021/09/12 11:59:30;;;;;;;10.00;5.93;;;742.50;1075.20;;;;;;5048257;28;20131;-63
2021/09/12 12:01:58;;;;;;;7.57;5.95;;;742.50;1049.60;;;;;;5048784;28;20039;-63
2021/09/12 12:04:25;;;;;;;10.75;6.60;;;742.40;1049.60;;;;;;5047937;28;20553;-63
2021/09/12 12:06:54;;;;;;;8.85;6.20;;;742.40;1075.20;;;;;;5039434;28;20029;-64
2021/09/12 12:09:30;;;;;;;7.60;5.68;;;742.40;1075.20;;;;;;5037787;28;20053;-64
2021/09/12 12:12:05;;;;;;;8.48;5.35;;;742.40;1075.20;;;;;;5036940;28;20021;-62
2021/09/12 12:14:31;;;;;;;6.68;5.43;;;742.50;1075.20;;;;;;5039269;28;20061;-63